sensor_id;sensor_type;location;lat;lon;timestamp;P1;durP1;ratioP1;P2;durP2;ratioP2
57309;SDS011;43153;50.984;18.204;2023-04-01T00:00:03;8.40;;;3.80;;
57309;SDS011;43153;50.984;18.204;2023-04-01T00:02:32;8.30;;;3.20;;
57309;SDS011;43153;50.984;18.204;2023-04-01T00:05:07;9.40;;;3.90;;
57309;SDS011;43153;50.984;18.204;2023-04-01T00:07:43;13.80;;;4.00;;
57309;SDS011;43153;50.984;18.204;2023-04-01T00:10:16;12.20;;;4.30;;
57309;SDS011;43153;50.984;18.204;2023-04-01T00:12:42;15.50;;;6.00;;
57309;SDS011;43153;50.984;18.204;2023-04-01T00:15:12;14.00;;;5.00;;
57309;SDS011;43153;50.984;18.204;2023-04-01T00:17:39;18.10;;;6.50;;
57309;SDS011;43153;50.984;18.204;2023-04-01T00:20:15;16.80;;;6.00;;
57309;SDS011;43153;50.984;18.204;2023-04-01T00:22:42;22.50;;;6.50;;
57309;SDS011;43153;50.984;18.204;2023-04-01T00:25:08;16.00;;;5.50;;
57309;SDS011;43153;50.984;18.204;2023-04-01T00:27:38;17.40;;;4.40;;
57309;SDS011;43153;50.984;18.204;2023-04-01T00:30:13;9.80;;;4.20;;
57309;SDS011;43153;50.984;18.204;2023-04-01T00:32:44;11.40;;;4.00;;
57309;SDS011;43153;50.984;18.204;2023-04-01T00:35:11;10.50;;;4.30;;
57309;SDS011;43153;50.984;18.204;2023-04-01T00:37:41;12.20;;;4.70;;
57309;SDS011;43153;50.984;18.204;2023-04-01T00:40:27;12.80;;;4.00;;
57309;SDS011;43153;50.984;18.204;2023-04-01T00:42:54;9.10;;;3.80;;
57309;SDS011;43153;50.984;18.204;2023-04-01T00:45:30;11.30;;;3.70;;
57309;SDS011;43153;50.984;18.204;2023-04-01T00:47:59;9.80;;;4.00;;
57309;SDS011;43153;50.984;18.204;2023-04-01T00:50:32;9.50;;;3.40;;
57309;SDS011;43153;50.984;18.204;2023-04-01T00:53:05;16.30;;;3.90;;
57309;SDS011;43153;50.984;18.204;2023-04-01T00:55:35;11.20;;;5.30;;
57309;SDS011;43153;50.984;18.204;2023-04-01T00:58:05;18.90;;;7.00;;
57309;SDS011;43153;50.984;18.204;2023-04-01T01:00:34;30.30;;;11.40;;
57309;SDS011;43153;50.984;18.204;2023-04-01T01:03:04;26.90;;;10.00;;
57309;SDS011;43153;50.984;18.204;2023-04-01T01:05:37;25.70;;;9.10;;
57309;SDS011;43153;50.984;18.204;2023-04-01T01:11:12;17.20;;;7.00;;
57309;SDS011;43153;50.984;18.204;2023-04-01T01:13:57;12.60;;;4.90;;
57309;SDS011;43153;50.984;18.204;2023-04-01T01:16:32;14.40;;;5.90;;
57309;SDS011;43153;50.984;18.204;2023-04-01T01:22:17;12.10;;;4.40;;
57309;SDS011;43153;50.984;18.204;2023-04-01T01:27:47;12.30;;;4.60;;
57309;SDS011;43153;50.984;18.204;2023-04-01T01:30:38;9.40;;;3.70;;
57309;SDS011;43153;50.984;18.204;2023-04-01T01:33:19;8.90;;;3.30;;
57309;SDS011;43153;50.984;18.204;2023-04-01T01:36:02;14.20;;;4.40;;
57309;SDS011;43153;50.984;18.204;2023-04-01T01:38:45;10.20;;;3.70;;
57309;SDS011;43153;50.984;18.204;2023-04-01T01:41:25;11.00;;;4.20;;
57309;SDS011;43153;50.984;18.204;2023-04-01T01:43:55;13.50;;;4.20;;
57309;SDS011;43153;50.984;18.204;2023-04-01T01:46:34;11.80;;;4.10;;
57309;SDS011;43153;50.984;18.204;2023-04-01T01:49:03;9.30;;;3.70;;
57309;SDS011;43153;50.984;18.204;2023-04-01T01:51:34;9.90;;;4.40;;
57309;SDS011;43153;50.984;18.204;2023-04-01T01:54:13;11.70;;;4.10;;
57309;SDS011;43153;50.984;18.204;2023-04-01T01:56:41;14.30;;;4.50;;
57309;SDS011;43153;50.984;18.204;2023-04-01T02:01:41;11.30;;;5.80;;
57309;SDS011;43153;50.984;18.204;2023-04-01T02:04:14;17.50;;;6.60;;
57309;SDS011;43153;50.984;18.204;2023-04-01T02:06:50;16.40;;;6.90;;
57309;SDS011;43153;50.984;18.204;2023-04-01T02:09:25;18.10;;;8.70;;
57309;SDS011;43153;50.984;18.204;2023-04-01T02:12:01;15.40;;;6.90;;
57309;SDS011;43153;50.984;18.204;2023-04-01T02:17:27;15.50;;;5.40;;
57309;SDS011;43153;50.984;18.204;2023-04-01T02:20:00;11.80;;;5.60;;
57309;SDS011;43153;50.984;18.204;2023-04-01T03:03:24;118.20;;;39.70;;
57309;SDS011;43153;50.984;18.204;2023-04-01T03:06:01;126.30;;;38.20;;
57309;SDS011;43153;50.984;18.204;2023-04-01T03:08:38;86.40;;;27.40;;
57309;SDS011;43153;50.984;18.204;2023-04-01T03:11:12;47.60;;;15.10;;
57309;SDS011;43153;50.984;18.204;2023-04-01T03:13:45;36.50;;;11.00;;
57309;SDS011;43153;50.984;18.204;2023-04-01T03:16:13;31.00;;;9.10;;
57309;SDS011;43153;50.984;18.204;2023-04-01T03:18:42;16.70;;;6.20;;
57309;SDS011;43153;50.984;18.204;2023-04-01T03:24:12;12.50;;;4.70;;
57309;SDS011;43153;50.984;18.204;2023-04-01T03:26:43;10.70;;;4.40;;
57309;SDS011;43153;50.984;18.204;2023-04-01T03:29:10;13.70;;;4.70;;
57309;SDS011;43153;50.984;18.204;2023-04-01T03:31:45;12.70;;;5.00;;
57309;SDS011;43153;50.984;18.204;2023-04-01T03:34:30;9.90;;;4.50;;
57309;SDS011;43153;50.984;18.204;2023-04-01T03:37:13;9.00;;;3.60;;
57309;SDS011;43153;50.984;18.204;2023-04-01T03:39:40;10.90;;;4.40;;
57309;SDS011;43153;50.984;18.204;2023-04-01T03:42:29;15.50;;;4.60;;
57309;SDS011;43153;50.984;18.204;2023-04-01T03:44:59;10.90;;;3.70;;
57309;SDS011;43153;50.984;18.204;2023-04-01T03:47:25;9.70;;;3.70;;
57309;SDS011;43153;50.984;18.204;2023-04-01T03:49:55;13.20;;;4.80;;
57309;SDS011;43153;50.984;18.204;2023-04-01T03:52:21;33.80;;;10.40;;
57309;SDS011;43153;50.984;18.204;2023-04-01T03:54:56;47.80;;;14.50;;
57309;SDS011;43153;50.984;18.204;2023-04-01T03:57:24;42.20;;;12.90;;
57309;SDS011;43153;50.984;18.204;2023-04-01T04:00:02;37.50;;;13.90;;
57309;SDS011;43153;50.984;18.204;2023-04-01T04:02:30;57.30;;;18.80;;
57309;SDS011;43153;50.984;18.204;2023-04-01T04:05:04;82.40;;;27.70;;
57309;SDS011;43153;50.984;18.204;2023-04-01T04:07:36;86.10;;;25.00;;
57309;SDS011;43153;50.984;18.204;2023-04-01T04:10:11;71.50;;;22.80;;
57309;SDS011;43153;50.984;18.204;2023-04-01T04:12:52;58.50;;;19.50;;
57309;SDS011;43153;50.984;18.204;2023-04-01T04:15:21;37.70;;;11.70;;
57309;SDS011;43153;50.984;18.204;2023-04-01T04:17:50;29.20;;;9.90;;
57309;SDS011;43153;50.984;18.204;2023-04-01T04:20:29;20.50;;;6.80;;
57309;SDS011;43153;50.984;18.204;2023-04-01T04:23:17;14.20;;;4.80;;
57309;SDS011;43153;50.984;18.204;2023-04-01T04:25:53;10.90;;;4.40;;
57309;SDS011;43153;50.984;18.204;2023-04-01T04:28:27;11.70;;;4.20;;
57309;SDS011;43153;50.984;18.204;2023-04-01T04:30:56;11.60;;;4.90;;
57309;SDS011;43153;50.984;18.204;2023-04-01T04:33:35;12.50;;;4.80;;
57309;SDS011;43153;50.984;18.204;2023-04-01T04:36:06;14.60;;;5.70;;
57309;SDS011;43153;50.984;18.204;2023-04-01T04:38:35;23.10;;;7.10;;
57309;SDS011;43153;50.984;18.204;2023-04-01T04:41:23;23.40;;;8.80;;
57309;SDS011;43153;50.984;18.204;2023-04-01T04:43:52;29.30;;;9.10;;
57309;SDS011;43153;50.984;18.204;2023-04-01T04:46:26;21.20;;;7.30;;
57309;SDS011;43153;50.984;18.204;2023-04-01T04:48:57;16.00;;;5.30;;
57309;SDS011;43153;50.984;18.204;2023-04-01T04:51:23;9.60;;;4.30;;
57309;SDS011;43153;50.984;18.204;2023-04-01T04:53:55;10.20;;;4.20;;
57309;SDS011;43153;50.984;18.204;2023-04-01T04:56:39;8.00;;;3.90;;
57309;SDS011;43153;50.984;18.204;2023-04-01T04:59:06;8.60;;;3.70;;
57309;SDS011;43153;50.984;18.204;2023-04-01T05:01:36;8.40;;;3.70;;
57309;SDS011;43153;50.984;18.204;2023-04-01T05:04:05;10.30;;;3.50;;
57309;SDS011;43153;50.984;18.204;2023-04-01T05:06:58;9.70;;;4.20;;
57309;SDS011;43153;50.984;18.204;2023-04-01T05:09:32;15.20;;;4.90;;
57309;SDS011;43153;50.984;18.204;2023-04-01T05:12:02;19.30;;;6.10;;
57309;SDS011;43153;50.984;18.204;2023-04-01T05:14:35;20.60;;;8.50;;
57309;SDS011;43153;50.984;18.204;2023-04-01T05:17:11;23.40;;;7.60;;
57309;SDS011;43153;50.984;18.204;2023-04-01T05:19:42;25.60;;;8.00;;
57309;SDS011;43153;50.984;18.204;2023-04-01T05:22:20;21.50;;;6.20;;
57309;SDS011;43153;50.984;18.204;2023-04-01T05:25:05;15.80;;;5.60;;
57309;SDS011;43153;50.984;18.204;2023-04-01T05:27:42;12.50;;;4.40;;
57309;SDS011;43153;50.984;18.204;2023-04-01T05:30:13;11.80;;;4.70;;
57309;SDS011;43153;50.984;18.204;2023-04-01T05:32:40;14.00;;;5.00;;
57309;SDS011;43153;50.984;18.204;2023-04-01T05:35:40;16.70;;;4.60;;
57309;SDS011;43153;50.984;18.204;2023-04-01T05:38:07;14.20;;;4.70;;
57309;SDS011;43153;50.984;18.204;2023-04-01T05:40:35;13.20;;;5.10;;
57309;SDS011;43153;50.984;18.204;2023-04-01T05:43:05;15.80;;;5.20;;
57309;SDS011;43153;50.984;18.204;2023-04-01T05:45:34;12.00;;;4.50;;
57309;SDS011;43153;50.984;18.204;2023-04-01T05:48:07;10.70;;;4.50;;
57309;SDS011;43153;50.984;18.204;2023-04-01T05:50:40;10.90;;;4.70;;
57309;SDS011;43153;50.984;18.204;2023-04-01T05:53:07;9.70;;;3.80;;
57309;SDS011;43153;50.984;18.204;2023-04-01T05:55:45;8.20;;;3.30;;
57309;SDS011;43153;50.984;18.204;2023-04-01T05:58:16;8.60;;;2.80;;
57309;SDS011;43153;50.984;18.204;2023-04-01T06:00:49;4.90;;;1.90;;
57309;SDS011;43153;50.984;18.204;2023-04-01T06:03:23;7.90;;;2.30;;
57309;SDS011;43153;50.984;18.204;2023-04-01T06:05:52;5.80;;;2.20;;
57309;SDS011;43153;50.984;18.204;2023-04-01T06:08:23;5.80;;;2.10;;
57309;SDS011;43153;50.984;18.204;2023-04-01T06:25:42;7.20;;;3.30;;
57309;SDS011;43153;50.984;18.204;2023-04-01T06:47:23;5.20;;;2.40;;
57309;SDS011;43153;50.984;18.204;2023-04-01T06:50:07;5.70;;;2.00;;
57309;SDS011;43153;50.984;18.204;2023-04-01T06:58:25;4.60;;;1.30;;
57309;SDS011;43153;50.984;18.204;2023-04-01T07:00:57;7.00;;;2.40;;
57309;SDS011;43153;50.984;18.204;2023-04-01T07:03:36;6.90;;;1.90;;
57309;SDS011;43153;50.984;18.204;2023-04-01T07:06:11;4.40;;;2.10;;
57309;SDS011;43153;50.984;18.204;2023-04-01T07:08:41;4.80;;;2.20;;
57309;SDS011;43153;50.984;18.204;2023-04-01T07:11:16;8.60;;;2.50;;
57309;SDS011;43153;50.984;18.204;2023-04-01T07:14:06;5.30;;;1.40;;
57309;SDS011;43153;50.984;18.204;2023-04-01T07:16:44;4.50;;;1.30;;
57309;SDS011;43153;50.984;18.204;2023-04-01T07:19:25;5.80;;;1.90;;
57309;SDS011;43153;50.984;18.204;2023-04-01T07:22:21;4.50;;;1.30;;
57309;SDS011;43153;50.984;18.204;2023-04-01T07:27:52;5.50;;;2.00;;
57309;SDS011;43153;50.984;18.204;2023-04-01T07:30:23;7.90;;;2.10;;
57309;SDS011;43153;50.984;18.204;2023-04-01T07:33:13;4.10;;;1.60;;
57309;SDS011;43153;50.984;18.204;2023-04-01T07:35:47;5.80;;;1.50;;
57309;SDS011;43153;50.984;18.204;2023-04-01T07:43:44;2.80;;;1.00;;
57309;SDS011;43153;50.984;18.204;2023-04-01T07:49:01;3.50;;;1.30;;
57309;SDS011;43153;50.984;18.204;2023-04-01T07:51:35;7.20;;;2.00;;
57309;SDS011;43153;50.984;18.204;2023-04-01T08:05:27;2.90;;;1.20;;
57309;SDS011;43153;50.984;18.204;2023-04-01T08:08:06;3.10;;;1.00;;
57309;SDS011;43153;50.984;18.204;2023-04-01T08:21:54;2.20;;;0.80;;
57309;SDS011;43153;50.984;18.204;2023-04-01T08:27:03;4.10;;;1.60;;
57309;SDS011;43153;50.984;18.204;2023-04-01T08:29:42;4.10;;;1.20;;
57309;SDS011;43153;50.984;18.204;2023-04-01T08:32:35;3.90;;;1.00;;
57309;SDS011;43153;50.984;18.204;2023-04-01T08:38:00;2.40;;;0.90;;
57309;SDS011;43153;50.984;18.204;2023-04-01T09:33:46;8.20;;;4.20;;
57309;SDS011;43153;50.984;18.204;2023-04-01T09:53:13;22.60;;;11.80;;
57309;SDS011;43153;50.984;18.204;2023-04-01T10:01:45;19.20;;;10.80;;
57309;SDS011;43153;50.984;18.204;2023-04-01T10:18:56;26.70;;;12.70;;
57309;SDS011;43153;50.984;18.204;2023-04-01T10:38:54;15.60;;;7.80;;
57309;SDS011;43153;50.984;18.204;2023-04-01T11:05:53;3.90;;;1.40;;
57309;SDS011;43153;50.984;18.204;2023-04-01T11:14:30;8.20;;;3.00;;
57309;SDS011;43153;50.984;18.204;2023-04-01T11:33:58;9.90;;;3.60;;
57309;SDS011;43153;50.984;18.204;2023-04-01T11:42:47;12.80;;;6.10;;
57309;SDS011;43153;50.984;18.204;2023-04-01T11:45:37;12.10;;;6.20;;
57309;SDS011;43153;50.984;18.204;2023-04-01T11:48:17;13.30;;;5.60;;
57309;SDS011;43153;50.984;18.204;2023-04-01T12:01:41;16.70;;;8.80;;
57309;SDS011;43153;50.984;18.204;2023-04-01T12:04:21;13.20;;;7.60;;
57309;SDS011;43153;50.984;18.204;2023-04-01T12:31:34;13.30;;;6.70;;
57309;SDS011;43153;50.984;18.204;2023-04-01T12:34:35;10.70;;;5.30;;
57309;SDS011;43153;50.984;18.204;2023-04-01T12:37:17;13.70;;;6.40;;
57309;SDS011;43153;50.984;18.204;2023-04-01T12:40:18;11.60;;;6.40;;
57309;SDS011;43153;50.984;18.204;2023-04-01T12:43:13;11.20;;;6.40;;
57309;SDS011;43153;50.984;18.204;2023-04-01T12:48:40;11.90;;;6.20;;
57309;SDS011;43153;50.984;18.204;2023-04-01T13:10:52;9.50;;;5.30;;
57309;SDS011;43153;50.984;18.204;2023-04-01T13:22:05;6.40;;;3.10;;
57309;SDS011;43153;50.984;18.204;2023-04-01T13:24:49;7.30;;;3.30;;
57309;SDS011;43153;50.984;18.204;2023-04-01T13:44:09;5.60;;;1.50;;
57309;SDS011;43153;50.984;18.204;2023-04-01T13:55:06;5.00;;;1.90;;
57309;SDS011;43153;50.984;18.204;2023-04-01T14:08:35;4.20;;;1.60;;
57309;SDS011;43153;50.984;18.204;2023-04-01T14:11:17;4.30;;;1.10;;
57309;SDS011;43153;50.984;18.204;2023-04-01T14:20:22;0.70;;;0.10;;
57309;SDS011;43153;50.984;18.204;2023-04-01T14:34:25;3.90;;;0.90;;
57309;SDS011;43153;50.984;18.204;2023-04-01T14:37:16;3.70;;;1.20;;
57309;SDS011;43153;50.984;18.204;2023-04-01T14:40:20;5.70;;;2.00;;
57309;SDS011;43153;50.984;18.204;2023-04-01T14:43:14;5.40;;;1.70;;
57309;SDS011;43153;50.984;18.204;2023-04-01T14:51:03;5.30;;;1.60;;
57309;SDS011;43153;50.984;18.204;2023-04-01T14:53:36;7.20;;;2.40;;
57309;SDS011;43153;50.984;18.204;2023-04-01T14:56:07;9.80;;;2.50;;
57309;SDS011;43153;50.984;18.204;2023-04-01T14:58:45;7.90;;;2.10;;
57309;SDS011;43153;50.984;18.204;2023-04-01T15:01:16;7.30;;;2.10;;
57309;SDS011;43153;50.984;18.204;2023-04-01T15:03:59;8.70;;;2.80;;
57309;SDS011;43153;50.984;18.204;2023-04-01T15:09:51;10.20;;;3.60;;
57309;SDS011;43153;50.984;18.204;2023-04-01T15:12:18;7.90;;;2.30;;
57309;SDS011;43153;50.984;18.204;2023-04-01T15:18:08;13.00;;;3.20;;
57309;SDS011;43153;50.984;18.204;2023-04-01T16:02:31;15.70;;;7.70;;
57309;SDS011;43153;50.984;18.204;2023-04-01T16:05:08;18.10;;;9.10;;
57309;SDS011;43153;50.984;18.204;2023-04-01T16:08:23;19.00;;;8.40;;
57309;SDS011;43153;50.984;18.204;2023-04-01T16:13:48;19.60;;;8.60;;
57309;SDS011;43153;50.984;18.204;2023-04-01T16:16:44;17.80;;;8.30;;
57309;SDS011;43153;50.984;18.204;2023-04-01T16:19:21;18.60;;;8.50;;
57309;SDS011;43153;50.984;18.204;2023-04-01T16:24:43;17.20;;;9.40;;
57309;SDS011;43153;50.984;18.204;2023-04-01T16:27:18;20.40;;;10.40;;
57309;SDS011;43153;50.984;18.204;2023-04-01T16:32:44;23.40;;;11.30;;
57309;SDS011;43153;50.984;18.204;2023-04-01T16:37:50;21.40;;;10.40;;
57309;SDS011;43153;50.984;18.204;2023-04-01T16:40:34;24.40;;;11.30;;
57309;SDS011;43153;50.984;18.204;2023-04-01T16:43:13;19.90;;;10.00;;
57309;SDS011;43153;50.984;18.204;2023-04-01T16:54:27;33.40;;;16.50;;
57309;SDS011;43153;50.984;18.204;2023-04-01T16:56:55;26.60;;;12.40;;
57309;SDS011;43153;50.984;18.204;2023-04-01T16:59:40;22.70;;;12.60;;
57309;SDS011;43153;50.984;18.204;2023-04-01T17:02:13;29.30;;;14.80;;
57309;SDS011;43153;50.984;18.204;2023-04-01T17:04:43;27.70;;;14.90;;
57309;SDS011;43153;50.984;18.204;2023-04-01T17:07:35;26.90;;;14.50;;
57309;SDS011;43153;50.984;18.204;2023-04-01T17:18:14;36.10;;;18.60;;
57309;SDS011;43153;50.984;18.204;2023-04-01T17:20:48;36.00;;;20.50;;
57309;SDS011;43153;50.984;18.204;2023-04-01T17:31:53;54.80;;;27.20;;
57309;SDS011;43153;50.984;18.204;2023-04-01T17:35:00;62.80;;;33.50;;
57309;SDS011;43153;50.984;18.204;2023-04-01T17:50:23;74.90;;;37.40;;
57309;SDS011;43153;50.984;18.204;2023-04-01T18:06:03;85.30;;;40.90;;
57309;SDS011;43153;50.984;18.204;2023-04-01T18:08:55;99.70;;;42.80;;
57309;SDS011;43153;50.984;18.204;2023-04-01T18:11:54;90.60;;;40.70;;
57309;SDS011;43153;50.984;18.204;2023-04-01T18:14:37;99.10;;;44.60;;
57309;SDS011;43153;50.984;18.204;2023-04-01T18:28:14;94.40;;;42.90;;
57309;SDS011;43153;50.984;18.204;2023-04-01T18:30:55;94.70;;;44.10;;
57309;SDS011;43153;50.984;18.204;2023-04-01T18:38:57;105.40;;;46.20;;
57309;SDS011;43153;50.984;18.204;2023-04-01T18:41:42;103.20;;;48.20;;
57309;SDS011;43153;50.984;18.204;2023-04-01T18:52:43;100.20;;;48.20;;
57309;SDS011;43153;50.984;18.204;2023-04-01T18:57:54;92.70;;;45.00;;
57309;SDS011;43153;50.984;18.204;2023-04-01T19:00:26;99.80;;;46.10;;
57309;SDS011;43153;50.984;18.204;2023-04-01T19:03:19;98.40;;;43.80;;
57309;SDS011;43153;50.984;18.204;2023-04-01T19:05:51;105.00;;;48.20;;
57309;SDS011;43153;50.984;18.204;2023-04-01T19:24:16;101.90;;;46.30;;
57309;SDS011;43153;50.984;18.204;2023-04-01T19:37:51;102.20;;;47.00;;
57309;SDS011;43153;50.984;18.204;2023-04-01T19:43:11;100.20;;;43.90;;
57309;SDS011;43153;50.984;18.204;2023-04-01T19:54:24;93.80;;;40.20;;
57309;SDS011;43153;50.984;18.204;2023-04-01T20:05:04;79.80;;;37.60;;
57309;SDS011;43153;50.984;18.204;2023-04-01T20:07:52;82.90;;;38.00;;
57309;SDS011;43153;50.984;18.204;2023-04-01T20:10:25;85.00;;;38.60;;
57309;SDS011;43153;50.984;18.204;2023-04-01T20:15:58;85.40;;;38.50;;
57309;SDS011;43153;50.984;18.204;2023-04-01T20:21:33;86.20;;;39.50;;
57309;SDS011;43153;50.984;18.204;2023-04-01T20:24:23;84.30;;;38.60;;
57309;SDS011;43153;50.984;18.204;2023-04-01T20:41:12;84.20;;;37.20;;
57309;SDS011;43153;50.984;18.204;2023-04-01T20:52:15;78.40;;;35.50;;
57309;SDS011;43153;50.984;18.204;2023-04-01T21:36:46;76.40;;;34.80;;
57309;SDS011;43153;50.984;18.204;2023-04-01T21:39:36;69.40;;;31.40;;
57309;SDS011;43153;50.984;18.204;2023-04-01T21:48:27;69.00;;;31.90;;
57309;SDS011;43153;50.984;18.204;2023-04-01T21:51:46;60.30;;;29.90;;
57309;SDS011;43153;50.984;18.204;2023-04-01T22:03:17;67.10;;;30.20;;
57309;SDS011;43153;50.984;18.204;2023-04-01T22:05:56;52.30;;;25.90;;
57309;SDS011;43153;50.984;18.204;2023-04-01T22:11:58;71.50;;;32.60;;
57309;SDS011;43153;50.984;18.204;2023-04-01T22:28:21;64.40;;;29.60;;
57309;SDS011;43153;50.984;18.204;2023-04-01T22:31:17;66.90;;;29.80;;
57309;SDS011;43153;50.984;18.204;2023-04-01T22:39:25;59.50;;;30.90;;
57309;SDS011;43153;50.984;18.204;2023-04-01T22:44:44;59.90;;;29.50;;
57309;SDS011;43153;50.984;18.204;2023-04-01T22:50:14;60.50;;;30.10;;
57309;SDS011;43153;50.984;18.204;2023-04-01T22:52:47;69.80;;;33.20;;
57309;SDS011;43153;50.984;18.204;2023-04-01T22:55:25;58.10;;;30.40;;
57309;SDS011;43153;50.984;18.204;2023-04-01T22:57:58;63.10;;;29.60;;
57309;SDS011;43153;50.984;18.204;2023-04-01T23:00:27;62.20;;;30.00;;
57309;SDS011;43153;50.984;18.204;2023-04-01T23:06:11;55.80;;;28.00;;
57309;SDS011;43153;50.984;18.204;2023-04-01T23:11:35;49.10;;;26.40;;
57309;SDS011;43153;50.984;18.204;2023-04-01T23:16:47;58.10;;;30.70;;
57309;SDS011;43153;50.984;18.204;2023-04-01T23:19:17;54.10;;;29.40;;
57309;SDS011;43153;50.984;18.204;2023-04-01T23:21:51;59.20;;;29.50;;
57309;SDS011;43153;50.984;18.204;2023-04-01T23:24:44;58.70;;;28.80;;
57309;SDS011;43153;50.984;18.204;2023-04-01T23:29:57;63.80;;;31.00;;
57309;SDS011;43153;50.984;18.204;2023-04-01T23:32:26;60.50;;;30.30;;
57309;SDS011;43153;50.984;18.204;2023-04-01T23:34:56;57.40;;;29.60;;
57309;SDS011;43153;50.984;18.204;2023-04-01T23:37:24;52.60;;;27.80;;
57309;SDS011;43153;50.984;18.204;2023-04-01T23:39:53;57.40;;;30.60;;
57309;SDS011;43153;50.984;18.204;2023-04-01T23:42:23;60.60;;;29.70;;
57309;SDS011;43153;50.984;18.204;2023-04-01T23:44:57;55.60;;;28.70;;
57309;SDS011;43153;50.984;18.204;2023-04-01T23:47:37;60.50;;;29.50;;
57309;SDS011;43153;50.984;18.204;2023-04-01T23:50:10;57.00;;;29.80;;
57309;SDS011;43153;50.984;18.204;2023-04-01T23:55:27;68.00;;;31.40;;
57309;SDS011;43153;50.984;18.204;2023-04-01T23:58:13;56.20;;;27.50;;
